sensor_id;sensor_type;location;lat;lon;timestamp;temperature;humidity
39079;DHT22;24829;49.208;12.080;2022-11-15T00:00:08;4.20;99.90
39079;DHT22;24829;49.208;12.080;2022-11-15T00:02:35;4.20;99.90
39079;DHT22;24829;49.208;12.080;2022-11-15T00:05:00;4.20;99.90
39079;DHT22;24829;49.208;12.080;2022-11-15T00:07:26;4.20;99.90
39079;DHT22;24829;49.208;12.080;2022-11-15T00:09:51;4.10;99.90
39079;DHT22;24829;49.208;12.080;2022-11-15T00:12:17;4.10;99.90
39079;DHT22;24829;49.208;12.080;2022-11-15T00:14:42;4.10;99.90
39079;DHT22;24829;49.208;12.080;2022-11-15T00:17:08;4.10;99.90
39079;DHT22;24829;49.208;12.080;2022-11-15T00:19:33;4.10;99.90
39079;DHT22;24829;49.208;12.080;2022-11-15T00:22:00;4.10;99.90
39079;DHT22;24829;49.208;12.080;2022-11-15T00:24:25;4.10;99.90
39079;DHT22;24829;49.208;12.080;2022-11-15T00:26:51;4.00;99.90
39079;DHT22;24829;49.208;12.080;2022-11-15T00:29:16;4.00;99.90
39079;DHT22;24829;49.208;12.080;2022-11-15T00:31:42;4.00;99.90
39079;DHT22;24829;49.208;12.080;2022-11-15T00:34:09;3.90;99.90
39079;DHT22;24829;49.208;12.080;2022-11-15T00:36:35;3.90;99.90
39079;DHT22;24829;49.208;12.080;2022-11-15T00:39:03;3.80;99.90
39079;DHT22;24829;49.208;12.080;2022-11-15T00:41:30;3.70;99.90
39079;DHT22;24829;49.208;12.080;2022-11-15T00:43:56;3.70;99.90
39079;DHT22;24829;49.208;12.080;2022-11-15T00:46:21;3.70;99.90
39079;DHT22;24829;49.208;12.080;2022-11-15T00:48:47;3.70;99.90
39079;DHT22;24829;49.208;12.080;2022-11-15T00:51:12;3.70;99.90
39079;DHT22;24829;49.208;12.080;2022-11-15T00:53:38;3.70;99.90
39079;DHT22;24829;49.208;12.080;2022-11-15T00:56:04;3.70;99.90
39079;DHT22;24829;49.208;12.080;2022-11-15T00:58:29;3.70;99.90
39079;DHT22;24829;49.208;12.080;2022-11-15T01:00:55;3.60;99.90
39079;DHT22;24829;49.208;12.080;2022-11-15T01:03:21;3.50;99.90
39079;DHT22;24829;49.208;12.080;2022-11-15T01:05:46;3.40;99.90
39079;DHT22;24829;49.208;12.080;2022-11-15T01:08:14;3.30;99.90
39079;DHT22;24829;49.208;12.080;2022-11-15T01:10:39;3.30;99.90
39079;DHT22;24829;49.208;12.080;2022-11-15T01:13:05;3.20;99.90
39079;DHT22;24829;49.208;12.080;2022-11-15T01:15:31;3.10;99.90
39079;DHT22;24829;49.208;12.080;2022-11-15T01:17:56;3.00;99.90
39079;DHT22;24829;49.208;12.080;2022-11-15T01:20:22;2.90;99.90
39079;DHT22;24829;49.208;12.080;2022-11-15T01:22:47;2.90;99.90
39079;DHT22;24829;49.208;12.080;2022-11-15T01:25:13;2.90;99.90
39079;DHT22;24829;49.208;12.080;2022-11-15T01:27:38;3.00;99.90
39079;DHT22;24829;49.208;12.080;2022-11-15T01:30:04;3.00;99.90
39079;DHT22;24829;49.208;12.080;2022-11-15T01:32:30;3.10;99.90
39079;DHT22;24829;49.208;12.080;2022-11-15T01:34:56;3.10;99.90
39079;DHT22;24829;49.208;12.080;2022-11-15T01:37:21;3.20;99.90
39079;DHT22;24829;49.208;12.080;2022-11-15T01:39:47;3.20;99.90
39079;DHT22;24829;49.208;12.080;2022-11-15T01:42:13;3.20;99.90
39079;DHT22;24829;49.208;12.080;2022-11-15T01:44:50;3.30;99.90
39079;DHT22;24829;49.208;12.080;2022-11-15T01:47:20;3.30;99.90
39079;DHT22;24829;49.208;12.080;2022-11-15T01:49:57;3.40;99.90
39079;DHT22;24829;49.208;12.080;2022-11-15T01:52:26;3.30;99.90
39079;DHT22;24829;49.208;12.080;2022-11-15T01:55:18;3.30;99.90
39079;DHT22;24829;49.208;12.080;2022-11-15T01:57:44;3.30;99.90
39079;DHT22;24829;49.208;12.080;2022-11-15T02:00:12;3.30;99.90
39079;DHT22;24829;49.208;12.080;2022-11-15T02:02:38;3.30;99.90
39079;DHT22;24829;49.208;12.080;2022-11-15T02:05:05;3.20;99.90
39079;DHT22;24829;49.208;12.080;2022-11-15T02:07:31;3.20;99.90
39079;DHT22;24829;49.208;12.080;2022-11-15T02:10:08;3.20;99.90
39079;DHT22;24829;49.208;12.080;2022-11-15T02:12:34;3.10;99.90
39079;DHT22;24829;49.208;12.080;2022-11-15T02:15:00;3.10;99.90
39079;DHT22;24829;49.208;12.080;2022-11-15T02:28:40;3.00;99.90
39079;DHT22;24829;49.208;12.080;2022-11-15T02:31:20;2.90;99.90
39079;DHT22;24829;49.208;12.080;2022-11-15T02:33:59;3.00;99.90
39079;DHT22;24829;49.208;12.080;2022-11-15T02:42:35;2.90;99.90
39079;DHT22;24829;49.208;12.080;2022-11-15T02:45:26;2.90;99.90
39079;DHT22;24829;49.208;12.080;2022-11-15T02:47:54;2.90;99.90
39079;DHT22;24829;49.208;12.080;2022-11-15T02:50:25;2.90;99.90
39079;DHT22;24829;49.208;12.080;2022-11-15T02:52:52;2.90;99.90
39079;DHT22;24829;49.208;12.080;2022-11-15T02:55:34;2.80;99.90
39079;DHT22;24829;49.208;12.080;2022-11-15T03:00:41;2.50;99.90
39079;DHT22;24829;49.208;12.080;2022-11-15T03:05:56;2.30;99.90
39079;DHT22;24829;49.208;12.080;2022-11-15T03:18:36;2.00;99.90
39079;DHT22;24829;49.208;12.080;2022-11-15T03:21:06;2.00;99.90
39079;DHT22;24829;49.208;12.080;2022-11-15T03:23:34;2.00;99.90
39079;DHT22;24829;49.208;12.080;2022-11-15T03:26:01;2.10;99.90
39079;DHT22;24829;49.208;12.080;2022-11-15T03:28:36;2.10;99.90
39079;DHT22;24829;49.208;12.080;2022-11-15T03:31:03;2.00;99.90
39079;DHT22;24829;49.208;12.080;2022-11-15T03:33:51;2.00;99.90
39079;DHT22;24829;49.208;12.080;2022-11-15T03:36:18;2.00;99.90
39079;DHT22;24829;49.208;12.080;2022-11-15T03:38:44;2.10;99.90
39079;DHT22;24829;49.208;12.080;2022-11-15T03:41:28;2.10;99.90
39079;DHT22;24829;49.208;12.080;2022-11-15T03:43:56;2.10;99.90
39079;DHT22;24829;49.208;12.080;2022-11-15T03:46:34;2.10;99.90
39079;DHT22;24829;49.208;12.080;2022-11-15T03:49:11;2.20;99.90
39079;DHT22;24829;49.208;12.080;2022-11-15T03:51:37;2.20;99.90
39079;DHT22;24829;49.208;12.080;2022-11-15T03:54:06;2.20;99.90
39079;DHT22;24829;49.208;12.080;2022-11-15T03:56:31;2.20;99.90
39079;DHT22;24829;49.208;12.080;2022-11-15T03:58:57;2.20;99.90
39079;DHT22;24829;49.208;12.080;2022-11-15T04:01:22;2.20;99.90
39079;DHT22;24829;49.208;12.080;2022-11-15T04:03:48;2.20;99.90
39079;DHT22;24829;49.208;12.080;2022-11-15T04:06:14;2.20;99.90
39079;DHT22;24829;49.208;12.080;2022-11-15T04:08:39;2.20;99.90
39079;DHT22;24829;49.208;12.080;2022-11-15T04:11:05;2.20;99.90
39079;DHT22;24829;49.208;12.080;2022-11-15T04:13:30;2.20;99.90
39079;DHT22;24829;49.208;12.080;2022-11-15T04:15:56;2.20;99.90
39079;DHT22;24829;49.208;12.080;2022-11-15T04:18:21;2.20;99.90
39079;DHT22;24829;49.208;12.080;2022-11-15T04:20:47;2.20;99.90
39079;DHT22;24829;49.208;12.080;2022-11-15T04:23:31;2.20;99.90
39079;DHT22;24829;49.208;12.080;2022-11-15T04:26:28;2.00;99.90
39079;DHT22;24829;49.208;12.080;2022-11-15T04:28:54;1.90;99.90
39079;DHT22;24829;49.208;12.080;2022-11-15T04:31:38;1.80;99.90
39079;DHT22;24829;49.208;12.080;2022-11-15T04:34:04;1.60;99.90
39079;DHT22;24829;49.208;12.080;2022-11-15T04:36:29;1.50;99.90
39079;DHT22;24829;49.208;12.080;2022-11-15T04:39:13;1.40;99.90
39079;DHT22;24829;49.208;12.080;2022-11-15T04:41:39;1.40;99.90
39079;DHT22;24829;49.208;12.080;2022-11-15T04:44:04;1.40;99.90
39079;DHT22;24829;49.208;12.080;2022-11-15T04:46:30;1.30;99.90
39079;DHT22;24829;49.208;12.080;2022-11-15T04:48:56;1.30;99.90
39079;DHT22;24829;49.208;12.080;2022-11-15T04:51:21;1.30;99.90
39079;DHT22;24829;49.208;12.080;2022-11-15T04:53:47;1.30;99.90
39079;DHT22;24829;49.208;12.080;2022-11-15T04:56:12;1.30;99.90
39079;DHT22;24829;49.208;12.080;2022-11-15T04:58:38;1.30;99.90
39079;DHT22;24829;49.208;12.080;2022-11-15T05:01:08;1.30;99.90
39079;DHT22;24829;49.208;12.080;2022-11-15T05:03:34;1.20;99.90
39079;DHT22;24829;49.208;12.080;2022-11-15T05:06:18;1.30;99.90
39079;DHT22;24829;49.208;12.080;2022-11-15T05:08:44;1.40;99.90
39079;DHT22;24829;49.208;12.080;2022-11-15T05:11:10;1.40;99.90
39079;DHT22;24829;49.208;12.080;2022-11-15T05:13:35;1.50;99.90
39079;DHT22;24829;49.208;12.080;2022-11-15T05:16:01;1.50;99.90
39079;DHT22;24829;49.208;12.080;2022-11-15T05:18:26;1.60;99.90
39079;DHT22;24829;49.208;12.080;2022-11-15T05:20:52;1.70;99.90
39079;DHT22;24829;49.208;12.080;2022-11-15T05:23:17;1.70;99.90
39079;DHT22;24829;49.208;12.080;2022-11-15T05:25:43;1.70;99.90
39079;DHT22;24829;49.208;12.080;2022-11-15T05:28:08;1.70;99.90
39079;DHT22;24829;49.208;12.080;2022-11-15T05:30:34;1.70;99.90
39079;DHT22;24829;49.208;12.080;2022-11-15T05:33:00;1.70;99.90
39079;DHT22;24829;49.208;12.080;2022-11-15T05:35:38;1.60;99.90
39079;DHT22;24829;49.208;12.080;2022-11-15T05:38:05;1.70;99.90
39079;DHT22;24829;49.208;12.080;2022-11-15T05:40:31;1.70;99.90
39079;DHT22;24829;49.208;12.080;2022-11-15T05:42:59;1.70;99.90
39079;DHT22;24829;49.208;12.080;2022-11-15T05:45:26;1.70;99.90
39079;DHT22;24829;49.208;12.080;2022-11-15T05:47:52;1.70;99.90
39079;DHT22;24829;49.208;12.080;2022-11-15T05:50:18;1.80;99.90
39079;DHT22;24829;49.208;12.080;2022-11-15T05:52:45;1.80;99.90
39079;DHT22;24829;49.208;12.080;2022-11-15T05:55:11;1.80;99.90
39079;DHT22;24829;49.208;12.080;2022-11-15T05:57:37;1.90;99.90
39079;DHT22;24829;49.208;12.080;2022-11-15T06:00:04;1.90;99.90
39079;DHT22;24829;49.208;12.080;2022-11-15T06:02:30;1.90;99.90
39079;DHT22;24829;49.208;12.080;2022-11-15T06:04:55;2.00;99.90
39079;DHT22;24829;49.208;12.080;2022-11-15T06:07:21;2.10;99.90
39079;DHT22;24829;49.208;12.080;2022-11-15T06:09:47;2.20;99.90
39079;DHT22;24829;49.208;12.080;2022-11-15T06:12:13;2.20;99.90
39079;DHT22;24829;49.208;12.080;2022-11-15T06:14:38;2.20;99.90
39079;DHT22;24829;49.208;12.080;2022-11-15T06:17:04;2.20;99.90
39079;DHT22;24829;49.208;12.080;2022-11-15T06:19:29;2.10;99.90
39079;DHT22;24829;49.208;12.080;2022-11-15T06:22:01;2.10;99.90
39079;DHT22;24829;49.208;12.080;2022-11-15T06:24:27;2.10;99.90
39079;DHT22;24829;49.208;12.080;2022-11-15T06:26:52;1.90;99.90
39079;DHT22;24829;49.208;12.080;2022-11-15T06:29:18;1.90;99.90
39079;DHT22;24829;49.208;12.080;2022-11-15T06:31:43;1.80;99.90
39079;DHT22;24829;49.208;12.080;2022-11-15T06:34:09;1.80;99.90
39079;DHT22;24829;49.208;12.080;2022-11-15T06:36:35;1.80;99.90
39079;DHT22;24829;49.208;12.080;2022-11-15T06:39:04;1.80;99.90
39079;DHT22;24829;49.208;12.080;2022-11-15T06:41:30;1.80;99.90
39079;DHT22;24829;49.208;12.080;2022-11-15T06:43:57;1.90;99.90
39079;DHT22;24829;49.208;12.080;2022-11-15T06:46:23;2.00;99.90
39079;DHT22;24829;49.208;12.080;2022-11-15T06:48:51;2.10;99.90
39079;DHT22;24829;49.208;12.080;2022-11-15T06:51:16;2.20;99.90
39079;DHT22;24829;49.208;12.080;2022-11-15T06:53:42;2.20;99.90
39079;DHT22;24829;49.208;12.080;2022-11-15T06:56:08;2.20;99.90
39079;DHT22;24829;49.208;12.080;2022-11-15T06:58:34;2.20;99.90
39079;DHT22;24829;49.208;12.080;2022-11-15T07:01:10;2.00;99.90
39079;DHT22;24829;49.208;12.080;2022-11-15T07:03:41;1.90;99.90
39079;DHT22;24829;49.208;12.080;2022-11-15T07:06:08;1.90;99.90
39079;DHT22;24829;49.208;12.080;2022-11-15T07:08:34;1.80;99.90
39079;DHT22;24829;49.208;12.080;2022-11-15T07:11:02;1.80;99.90
39079;DHT22;24829;49.208;12.080;2022-11-15T07:13:30;1.80;99.90
39079;DHT22;24829;49.208;12.080;2022-11-15T07:16:01;1.90;99.90
39079;DHT22;24829;49.208;12.080;2022-11-15T07:18:27;1.80;99.90
39079;DHT22;24829;49.208;12.080;2022-11-15T07:20:52;1.90;99.90
39079;DHT22;24829;49.208;12.080;2022-11-15T07:23:18;2.00;99.90
39079;DHT22;24829;49.208;12.080;2022-11-15T07:25:44;2.00;99.90
39079;DHT22;24829;49.208;12.080;2022-11-15T07:28:09;1.90;99.90
39079;DHT22;24829;49.208;12.080;2022-11-15T07:30:35;1.80;99.90
39079;DHT22;24829;49.208;12.080;2022-11-15T07:33:02;1.80;99.90
39079;DHT22;24829;49.208;12.080;2022-11-15T07:35:28;1.80;99.90
39079;DHT22;24829;49.208;12.080;2022-11-15T07:37:55;1.70;99.90
39079;DHT22;24829;49.208;12.080;2022-11-15T07:40:22;1.70;99.90
39079;DHT22;24829;49.208;12.080;2022-11-15T07:42:47;1.70;99.90
39079;DHT22;24829;49.208;12.080;2022-11-15T07:45:20;1.70;99.90
39079;DHT22;24829;49.208;12.080;2022-11-15T07:47:47;1.70;99.90
39079;DHT22;24829;49.208;12.080;2022-11-15T07:50:13;1.70;99.90
39079;DHT22;24829;49.208;12.080;2022-11-15T07:52:38;1.80;99.90
39079;DHT22;24829;49.208;12.080;2022-11-15T07:55:04;1.80;99.90
39079;DHT22;24829;49.208;12.080;2022-11-15T07:57:30;1.90;99.90
39079;DHT22;24829;49.208;12.080;2022-11-15T07:59:55;2.00;99.90
39079;DHT22;24829;49.208;12.080;2022-11-15T08:02:21;2.00;99.90
39079;DHT22;24829;49.208;12.080;2022-11-15T08:04:46;2.00;99.90
39079;DHT22;24829;49.208;12.080;2022-11-15T08:07:12;2.10;99.90
39079;DHT22;24829;49.208;12.080;2022-11-15T08:09:38;2.10;99.90
39079;DHT22;24829;49.208;12.080;2022-11-15T08:12:04;2.20;99.90
39079;DHT22;24829;49.208;12.080;2022-11-15T08:14:29;2.30;99.90
39079;DHT22;24829;49.208;12.080;2022-11-15T08:16:55;2.40;99.90
39079;DHT22;24829;49.208;12.080;2022-11-15T08:19:21;2.40;99.90
39079;DHT22;24829;49.208;12.080;2022-11-15T08:21:46;2.50;99.90
39079;DHT22;24829;49.208;12.080;2022-11-15T08:24:12;2.50;99.90
39079;DHT22;24829;49.208;12.080;2022-11-15T08:26:38;2.60;99.90
39079;DHT22;24829;49.208;12.080;2022-11-15T08:29:05;2.80;99.90
39079;DHT22;24829;49.208;12.080;2022-11-15T08:31:30;2.90;99.90
39079;DHT22;24829;49.208;12.080;2022-11-15T08:33:56;3.00;99.90
39079;DHT22;24829;49.208;12.080;2022-11-15T08:36:21;3.10;99.90
39079;DHT22;24829;49.208;12.080;2022-11-15T08:38:47;3.20;99.90
39079;DHT22;24829;49.208;12.080;2022-11-15T08:41:19;3.30;99.90
39079;DHT22;24829;49.208;12.080;2022-11-15T08:43:48;3.40;99.90
39079;DHT22;24829;49.208;12.080;2022-11-15T08:46:14;3.40;99.90
39079;DHT22;24829;49.208;12.080;2022-11-15T08:48:39;3.50;99.90
39079;DHT22;24829;49.208;12.080;2022-11-15T08:51:05;3.60;99.90
39079;DHT22;24829;49.208;12.080;2022-11-15T08:53:31;3.70;99.90
39079;DHT22;24829;49.208;12.080;2022-11-15T08:55:56;3.80;99.90
39079;DHT22;24829;49.208;12.080;2022-11-15T08:58:22;4.00;99.90
39079;DHT22;24829;49.208;12.080;2022-11-15T09:00:48;4.10;99.90
39079;DHT22;24829;49.208;12.080;2022-11-15T09:03:13;4.10;99.90
39079;DHT22;24829;49.208;12.080;2022-11-15T09:05:39;4.20;99.90
39079;DHT22;24829;49.208;12.080;2022-11-15T09:08:05;4.20;99.90
39079;DHT22;24829;49.208;12.080;2022-11-15T09:10:30;4.20;99.90
39079;DHT22;24829;49.208;12.080;2022-11-15T09:12:58;4.20;99.90
39079;DHT22;24829;49.208;12.080;2022-11-15T09:15:24;4.10;99.90
39079;DHT22;24829;49.208;12.080;2022-11-15T09:17:50;4.10;99.90
39079;DHT22;24829;49.208;12.080;2022-11-15T09:20:15;4.10;99.90
39079;DHT22;24829;49.208;12.080;2022-11-15T09:22:41;4.00;99.90
39079;DHT22;24829;49.208;12.080;2022-11-15T09:25:07;4.00;99.90
39079;DHT22;24829;49.208;12.080;2022-11-15T09:27:33;4.00;99.90
39079;DHT22;24829;49.208;12.080;2022-11-15T09:29:58;3.90;99.90
39079;DHT22;24829;49.208;12.080;2022-11-15T09:32:28;3.90;99.90
39079;DHT22;24829;49.208;12.080;2022-11-15T09:34:53;3.90;99.90
39079;DHT22;24829;49.208;12.080;2022-11-15T09:37:19;3.80;99.90
39079;DHT22;24829;49.208;12.080;2022-11-15T09:39:45;3.80;99.90
39079;DHT22;24829;49.208;12.080;2022-11-15T09:42:37;3.80;99.90
39079;DHT22;24829;49.208;12.080;2022-11-15T09:50:43;4.00;99.90
39079;DHT22;24829;49.208;12.080;2022-11-15T09:53:14;4.10;99.90
39079;DHT22;24829;49.208;12.080;2022-11-15T09:56:22;4.10;99.90
39079;DHT22;24829;49.208;12.080;2022-11-15T09:59:07;4.10;99.90
39079;DHT22;24829;49.208;12.080;2022-11-15T10:04:11;4.30;99.90
39079;DHT22;24829;49.208;12.080;2022-11-15T10:06:43;4.40;99.90
39079;DHT22;24829;49.208;12.080;2022-11-15T10:09:18;4.50;99.90
39079;DHT22;24829;49.208;12.080;2022-11-15T10:11:45;4.60;99.90
39079;DHT22;24829;49.208;12.080;2022-11-15T10:14:20;4.70;99.90
39079;DHT22;24829;49.208;12.080;2022-11-15T10:17:02;4.70;99.90
39079;DHT22;24829;49.208;12.080;2022-11-15T10:24:47;5.00;99.90
39079;DHT22;24829;49.208;12.080;2022-11-15T10:27:15;5.20;99.90
39079;DHT22;24829;49.208;12.080;2022-11-15T10:29:49;5.30;99.90
39079;DHT22;24829;49.208;12.080;2022-11-15T10:32:17;5.40;99.90
39079;DHT22;24829;49.208;12.080;2022-11-15T10:34:43;5.50;99.90
39079;DHT22;24829;49.208;12.080;2022-11-15T10:37:09;5.70;99.90
39079;DHT22;24829;49.208;12.080;2022-11-15T10:39:34;5.80;99.90
39079;DHT22;24829;49.208;12.080;2022-11-15T10:42:26;5.80;99.90
39079;DHT22;24829;49.208;12.080;2022-11-15T10:44:53;5.90;99.90
39079;DHT22;24829;49.208;12.080;2022-11-15T10:47:25;6.00;99.90
39079;DHT22;24829;49.208;12.080;2022-11-15T10:50:05;6.00;99.90
39079;DHT22;24829;49.208;12.080;2022-11-15T10:52:34;6.00;99.90
39079;DHT22;24829;49.208;12.080;2022-11-15T10:55:06;6.00;99.90
39079;DHT22;24829;49.208;12.080;2022-11-15T10:57:54;6.10;99.90
39079;DHT22;24829;49.208;12.080;2022-11-15T11:05:29;6.20;99.90
39079;DHT22;24829;49.208;12.080;2022-11-15T11:07:59;6.20;99.90
39079;DHT22;24829;49.208;12.080;2022-11-15T11:10:27;6.20;99.90
39079;DHT22;24829;49.208;12.080;2022-11-15T11:12:53;6.30;99.90
39079;DHT22;24829;49.208;12.080;2022-11-15T11:15:18;6.30;99.90
39079;DHT22;24829;49.208;12.080;2022-11-15T11:18:05;6.40;99.90
39079;DHT22;24829;49.208;12.080;2022-11-15T11:20:41;6.50;99.90
39079;DHT22;24829;49.208;12.080;2022-11-15T11:23:36;6.60;99.90
39079;DHT22;24829;49.208;12.080;2022-11-15T11:29:24;6.80;99.90
39079;DHT22;24829;49.208;12.080;2022-11-15T11:35:43;7.10;99.90
39079;DHT22;24829;49.208;12.080;2022-11-15T11:40:31;7.40;99.90
39079;DHT22;24829;49.208;12.080;2022-11-15T11:48:13;7.80;99.90
39079;DHT22;24829;49.208;12.080;2022-11-15T11:50:44;7.90;99.90
39079;DHT22;24829;49.208;12.080;2022-11-15T11:53:30;8.10;99.90
39079;DHT22;24829;49.208;12.080;2022-11-15T11:56:02;8.20;99.90
39079;DHT22;24829;49.208;12.080;2022-11-15T11:58:38;8.20;99.90
39079;DHT22;24829;49.208;12.080;2022-11-15T12:01:37;8.20;99.90
39079;DHT22;24829;49.208;12.080;2022-11-15T12:04:17;8.20;99.90
39079;DHT22;24829;49.208;12.080;2022-11-15T12:07:01;8.20;99.90
39079;DHT22;24829;49.208;12.080;2022-11-15T12:09:35;8.20;99.90
39079;DHT22;24829;49.208;12.080;2022-11-15T12:14:58;8.30;99.90
39079;DHT22;24829;49.208;12.080;2022-11-15T12:17:28;8.30;99.90
39079;DHT22;24829;49.208;12.080;2022-11-15T12:20:03;8.40;99.90
39079;DHT22;24829;49.208;12.080;2022-11-15T12:22:49;8.50;99.90
39079;DHT22;24829;49.208;12.080;2022-11-15T12:25:19;8.60;99.90
39079;DHT22;24829;49.208;12.080;2022-11-15T12:28:03;8.60;99.90
39079;DHT22;24829;49.208;12.080;2022-11-15T12:30:54;8.70;99.90
39079;DHT22;24829;49.208;12.080;2022-11-15T12:33:37;8.80;99.90
39079;DHT22;24829;49.208;12.080;2022-11-15T12:36:05;8.90;99.90
39079;DHT22;24829;49.208;12.080;2022-11-15T12:41:42;9.00;99.90
39079;DHT22;24829;49.208;12.080;2022-11-15T12:44:12;9.10;99.90
39079;DHT22;24829;49.208;12.080;2022-11-15T12:52:04;9.20;99.90
39079;DHT22;24829;49.208;12.080;2022-11-15T12:59:48;9.30;99.90
39079;DHT22;24829;49.208;12.080;2022-11-15T13:02:21;9.40;99.90
39079;DHT22;24829;49.208;12.080;2022-11-15T13:04:49;9.60;99.90
39079;DHT22;24829;49.208;12.080;2022-11-15T13:10:32;9.70;99.90
39079;DHT22;24829;49.208;12.080;2022-11-15T13:12:58;9.80;99.90
39079;DHT22;24829;49.208;12.080;2022-11-15T13:15:35;9.80;99.90
39079;DHT22;24829;49.208;12.080;2022-11-15T13:18:26;9.80;99.90
39079;DHT22;24829;49.208;12.080;2022-11-15T13:20:52;9.80;99.90
39079;DHT22;24829;49.208;12.080;2022-11-15T13:23:18;9.80;99.90
39079;DHT22;24829;49.208;12.080;2022-11-15T13:26:12;9.90;99.90
39079;DHT22;24829;49.208;12.080;2022-11-15T13:34:14;9.70;99.90
39079;DHT22;24829;49.208;12.080;2022-11-15T13:36:41;9.70;99.90
39079;DHT22;24829;49.208;12.080;2022-11-15T13:39:25;9.60;99.90
39079;DHT22;24829;49.208;12.080;2022-11-15T13:41:52;9.60;99.90
39079;DHT22;24829;49.208;12.080;2022-11-15T13:44:21;9.70;99.90
39079;DHT22;24829;49.208;12.080;2022-11-15T13:46:47;9.60;99.90
39079;DHT22;24829;49.208;12.080;2022-11-15T13:49:12;9.60;99.90
39079;DHT22;24829;49.208;12.080;2022-11-15T13:51:39;9.60;99.90
39079;DHT22;24829;49.208;12.080;2022-11-15T13:56:53;9.50;99.90
39079;DHT22;24829;49.208;12.080;2022-11-15T13:59:33;9.50;99.90
39079;DHT22;24829;49.208;12.080;2022-11-15T14:02:03;9.50;99.90
39079;DHT22;24829;49.208;12.080;2022-11-15T14:04:38;9.40;99.90
39079;DHT22;24829;49.208;12.080;2022-11-15T14:07:04;9.40;99.90
39079;DHT22;24829;49.208;12.080;2022-11-15T14:09:39;9.40;99.90
39079;DHT22;24829;49.208;12.080;2022-11-15T14:12:30;9.40;99.90
39079;DHT22;24829;49.208;12.080;2022-11-15T14:14:56;9.40;99.90
39079;DHT22;24829;49.208;12.080;2022-11-15T14:19:55;9.40;99.90
39079;DHT22;24829;49.208;12.080;2022-11-15T14:25:19;9.40;99.90
39079;DHT22;24829;49.208;12.080;2022-11-15T14:28:15;9.40;99.90
39079;DHT22;24829;49.208;12.080;2022-11-15T14:30:43;9.40;99.90
39079;DHT22;24829;49.208;12.080;2022-11-15T14:33:25;9.40;99.90
39079;DHT22;24829;49.208;12.080;2022-11-15T14:35:54;9.50;99.90
39079;DHT22;24829;49.208;12.080;2022-11-15T14:38:21;9.40;99.90
39079;DHT22;24829;49.208;12.080;2022-11-15T14:40:47;9.40;99.90
39079;DHT22;24829;49.208;12.080;2022-11-15T14:43:13;9.50;99.90
39079;DHT22;24829;49.208;12.080;2022-11-15T14:45:39;9.50;99.90
39079;DHT22;24829;49.208;12.080;2022-11-15T14:48:05;9.40;99.90
39079;DHT22;24829;49.208;12.080;2022-11-15T14:50:33;9.40;99.90
39079;DHT22;24829;49.208;12.080;2022-11-15T14:52:59;9.40;99.90
39079;DHT22;24829;49.208;12.080;2022-11-15T14:55:33;9.40;99.90
39079;DHT22;24829;49.208;12.080;2022-11-15T14:58:05;9.30;99.90
39079;DHT22;24829;49.208;12.080;2022-11-15T15:00:34;9.20;99.90
39079;DHT22;24829;49.208;12.080;2022-11-15T15:03:00;9.10;99.90
39079;DHT22;24829;49.208;12.080;2022-11-15T15:05:31;9.00;99.90
39079;DHT22;24829;49.208;12.080;2022-11-15T15:07:58;9.00;99.90
39079;DHT22;24829;49.208;12.080;2022-11-15T15:10:24;8.90;99.90
39079;DHT22;24829;49.208;12.080;2022-11-15T15:12:51;8.80;99.90
39079;DHT22;24829;49.208;12.080;2022-11-15T15:15:33;8.80;99.90
39079;DHT22;24829;49.208;12.080;2022-11-15T15:17:59;8.70;99.90
39079;DHT22;24829;49.208;12.080;2022-11-15T15:20:25;8.60;99.90
39079;DHT22;24829;49.208;12.080;2022-11-15T15:22:51;8.60;99.90
39079;DHT22;24829;49.208;12.080;2022-11-15T15:27:49;8.60;99.90
39079;DHT22;24829;49.208;12.080;2022-11-15T15:30:15;8.60;99.90
39079;DHT22;24829;49.208;12.080;2022-11-15T15:32:40;8.50;99.90
39079;DHT22;24829;49.208;12.080;2022-11-15T15:35:07;8.50;99.90
39079;DHT22;24829;49.208;12.080;2022-11-15T15:37:35;8.40;99.90
39079;DHT22;24829;49.208;12.080;2022-11-15T15:40:01;8.30;99.90
39079;DHT22;24829;49.208;12.080;2022-11-15T15:42:27;8.20;99.90
39079;DHT22;24829;49.208;12.080;2022-11-15T15:44:52;8.10;99.90
39079;DHT22;24829;49.208;12.080;2022-11-15T15:47:22;8.10;99.90
39079;DHT22;24829;49.208;12.080;2022-11-15T15:49:49;7.90;99.90
39079;DHT22;24829;49.208;12.080;2022-11-15T15:52:14;7.70;99.90
39079;DHT22;24829;49.208;12.080;2022-11-15T15:54:40;7.60;99.90
39079;DHT22;24829;49.208;12.080;2022-11-15T15:57:07;7.50;99.90
39079;DHT22;24829;49.208;12.080;2022-11-15T15:59:33;7.40;99.90
39079;DHT22;24829;49.208;12.080;2022-11-15T16:01:59;7.50;99.90
39079;DHT22;24829;49.208;12.080;2022-11-15T16:04:25;7.50;99.90
39079;DHT22;24829;49.208;12.080;2022-11-15T16:06:51;7.60;99.90
39079;DHT22;24829;49.208;12.080;2022-11-15T16:09:19;7.60;99.90
39079;DHT22;24829;49.208;12.080;2022-11-15T16:12:07;7.70;99.90
39079;DHT22;24829;49.208;12.080;2022-11-15T16:14:33;7.70;99.90
39079;DHT22;24829;49.208;12.080;2022-11-15T16:16:58;7.70;99.90
39079;DHT22;24829;49.208;12.080;2022-11-15T16:19:24;7.70;99.90
39079;DHT22;24829;49.208;12.080;2022-11-15T16:21:50;7.70;99.90
39079;DHT22;24829;49.208;12.080;2022-11-15T16:24:17;7.60;99.90
39079;DHT22;24829;49.208;12.080;2022-11-15T16:26:43;7.60;99.90
39079;DHT22;24829;49.208;12.080;2022-11-15T16:29:10;7.60;99.90
39079;DHT22;24829;49.208;12.080;2022-11-15T16:31:35;7.50;99.90
39079;DHT22;24829;49.208;12.080;2022-11-15T16:34:01;7.40;99.90
39079;DHT22;24829;49.208;12.080;2022-11-15T16:36:28;7.30;99.90
39079;DHT22;24829;49.208;12.080;2022-11-15T16:38:55;7.30;99.90
39079;DHT22;24829;49.208;12.080;2022-11-15T16:41:21;7.30;99.90
39079;DHT22;24829;49.208;12.080;2022-11-15T16:43:47;7.30;99.90
39079;DHT22;24829;49.208;12.080;2022-11-15T16:46:21;7.20;99.90
39079;DHT22;24829;49.208;12.080;2022-11-15T16:48:47;7.10;99.90
39079;DHT22;24829;49.208;12.080;2022-11-15T16:51:14;7.10;99.90
39079;DHT22;24829;49.208;12.080;2022-11-15T16:53:40;7.00;99.90
39079;DHT22;24829;49.208;12.080;2022-11-15T16:56:27;7.00;99.90
39079;DHT22;24829;49.208;12.080;2022-11-15T16:58:54;6.90;99.90
39079;DHT22;24829;49.208;12.080;2022-11-15T17:01:27;6.90;99.90
39079;DHT22;24829;49.208;12.080;2022-11-15T17:03:53;7.00;99.90
39079;DHT22;24829;49.208;12.080;2022-11-15T17:06:20;7.00;99.90
39079;DHT22;24829;49.208;12.080;2022-11-15T17:08:46;7.00;99.90
39079;DHT22;24829;49.208;12.080;2022-11-15T17:11:20;7.00;99.90
39079;DHT22;24829;49.208;12.080;2022-11-15T17:13:46;6.90;99.90
39079;DHT22;24829;49.208;12.080;2022-11-15T17:16:16;6.80;99.90
39079;DHT22;24829;49.208;12.080;2022-11-15T17:18:42;6.60;99.90
39079;DHT22;24829;49.208;12.080;2022-11-15T17:21:16;6.40;99.90
39079;DHT22;24829;49.208;12.080;2022-11-15T17:23:43;6.20;99.90